Petushki, Russia
Current Conditions -  °F | °C
As of 4:00 AM on Tuesday 27 Jan 2015 (Local Time) from UUDD Reporting Station
Overcast Overcast  
Wind Chill:   Ceiling: 3600
Heat Index: 14°   Visibility: 6mi
Dew Point: 12°   Wind: 7mph
Humidity: 93%   Direction: 150°SSE
Pressure: 30.15"   Gusts: NA
Location:  55.93°N, 39.47°E
Report Text: UUDD 270100Z 15003MPS 9999 BKN036 OVC100 M10/M11 Q1021 64490193NOSIG
Loading
Personal Weather Stations






























Interactive Weather Map New forecast layout! Learn more

10-Day Weather Forecast

Advertisements
Track Severe Weather on mobile